createdAt,value
2023-06-08T00:00:21.898Z,99.30
2023-06-08T00:00:54.807Z,99.73
2023-06-08T00:01:27.103Z,99.58
2023-06-08T00:01:58.952Z,99.54
2023-06-08T00:02:31.089Z,99.81
2023-06-08T00:03:06.185Z,99.31
2023-06-08T00:03:39.627Z,98.92
2023-06-08T00:04:14.193Z,99.47
2023-06-08T00:04:46.592Z,99.51
2023-06-08T00:05:19.392Z,99.81
2023-06-08T00:05:51.138Z,99.83
2023-06-08T00:06:27.340Z,99.03
2023-06-08T00:06:59.104Z,99.81
2023-06-08T00:07:31.101Z,99.83
2023-06-08T00:08:03.207Z,99.86
2023-06-08T00:08:36.239Z,99.93
2023-06-08T00:09:08.473Z,99.93
2023-06-08T00:09:40.131Z,100.00
2023-06-08T00:10:12.111Z,99.83
2023-06-08T00:10:44.792Z,100.00
2023-06-08T00:11:16.458Z,99.78
2023-06-08T00:11:48.210Z,100.00
2023-06-08T00:12:19.903Z,100.00
2023-06-08T00:12:53.240Z,100.00
2023-06-08T00:13:24.828Z,100.00
2023-06-08T00:13:56.643Z,100.00
2023-06-08T00:14:28.339Z,100.00
2023-06-08T00:15:03.697Z,100.00
2023-06-08T00:15:35.346Z,100.00
2023-06-08T00:16:07.125Z,100.00
2023-06-08T00:16:39.328Z,100.00
2023-06-08T00:17:11.732Z,100.00
2023-06-08T00:17:45.569Z,100.00
2023-06-08T00:18:18.103Z,100.00
2023-06-08T00:18:50.655Z,100.00
2023-06-08T00:19:23.698Z,100.00
2023-06-08T00:19:57.985Z,100.00
2023-06-08T00:20:29.978Z,100.00
2023-06-08T00:21:02.981Z,100.00
2023-06-08T00:21:34.700Z,100.00
2023-06-08T00:22:08.705Z,100.00
2023-06-08T00:22:40.822Z,100.00
2023-06-08T00:23:12.369Z,100.00
2023-06-08T00:23:43.929Z,100.00
2023-06-08T00:24:20.635Z,100.00
2023-06-08T00:24:52.612Z,100.00
2023-06-08T00:25:24.261Z,100.00
2023-06-08T00:25:55.989Z,100.00
2023-06-08T00:26:27.545Z,100.00
2023-06-08T00:26:59.177Z,100.00
2023-06-08T00:27:30.784Z,100.00
2023-06-08T00:28:02.354Z,100.00
2023-06-08T00:28:33.905Z,100.00
2023-06-08T00:29:05.515Z,100.00
2023-06-08T00:29:37.142Z,100.00
2023-06-08T00:30:09.959Z,100.00
2023-06-08T00:30:41.575Z,100.00
2023-06-08T00:31:13.181Z,100.00
2023-06-08T00:31:44.826Z,100.00
2023-06-08T00:32:16.569Z,100.00
2023-06-08T00:32:51.505Z,100.00
2023-06-08T00:33:23.076Z,100.00
2023-06-08T00:33:54.838Z,100.00
2023-06-08T00:34:27.011Z,100.00
2023-06-08T00:35:00.196Z,100.00
2023-06-08T00:35:32.224Z,100.00
2023-06-08T00:36:05.694Z,100.00
2023-06-08T00:36:38.516Z,100.00
2023-06-08T00:37:10.316Z,100.00
2023-06-08T00:37:43.148Z,100.00
2023-06-08T00:38:14.690Z,100.00
2023-06-08T00:38:46.354Z,100.00
2023-06-08T00:39:17.946Z,100.00
2023-06-08T00:39:49.878Z,100.00
2023-06-08T00:40:21.564Z,100.00
2023-06-08T00:40:55.750Z,100.00
2023-06-08T00:41:27.352Z,100.00
2023-06-08T00:41:59.506Z,100.00
2023-06-08T00:42:32.162Z,100.00
2023-06-08T00:43:06.568Z,100.00
2023-06-08T00:43:38.154Z,100.00
2023-06-08T00:44:11.429Z,100.00
2023-06-08T00:44:42.985Z,100.00
2023-06-08T00:45:14.599Z,100.00
2023-06-08T00:45:46.727Z,100.00
2023-06-08T00:46:21.057Z,100.00
2023-06-08T00:46:52.957Z,100.00
2023-06-08T00:47:24.857Z,100.00
2023-06-08T00:47:56.625Z,100.00
2023-06-08T00:48:28.428Z,100.00
2023-06-08T00:49:00.819Z,100.00
2023-06-08T00:49:33.627Z,100.00
2023-06-08T00:50:08.678Z,100.00
2023-06-08T00:50:42.643Z,100.00
2023-06-08T00:51:14.517Z,100.00
2023-06-08T00:51:46.592Z,100.00
2023-06-08T00:52:19.257Z,100.00
2023-06-08T00:52:51.113Z,100.00
2023-06-08T00:53:24.356Z,100.00
2023-06-08T00:53:57.547Z,100.00
2023-06-08T00:54:31.530Z,100.00
2023-06-08T00:55:04.080Z,100.00
2023-06-08T00:55:36.189Z,100.00
2023-06-08T00:56:08.335Z,100.00
2023-06-08T00:56:42.188Z,100.00
2023-06-08T00:57:13.923Z,100.00
2023-06-08T00:57:48.776Z,100.00
2023-06-08T00:58:23.524Z,100.00
2023-06-08T00:58:57.923Z,100.00
2023-06-08T00:59:32.990Z,100.00
2023-06-08T01:00:09.953Z,100.00
2023-06-08T01:00:41.605Z,100.00
2023-06-08T01:01:18.788Z,100.00
2023-06-08T01:01:52.378Z,100.00
2023-06-08T01:02:25.052Z,100.00
2023-06-08T01:03:00.148Z,100.00
2023-06-08T01:03:36.764Z,100.00
2023-06-08T01:04:12.440Z,100.00
2023-06-08T01:04:44.497Z,100.00
2023-06-08T01:05:17.590Z,100.00
2023-06-08T01:05:54.194Z,100.00
2023-06-08T01:06:26.052Z,100.00
2023-06-08T01:07:17.778Z,100.00
2023-06-08T01:08:05.759Z,100.00
2023-06-08T01:08:44.224Z,100.00
2023-06-08T01:09:19.009Z,100.00
2023-06-08T01:09:54.381Z,100.00
2023-06-08T01:10:33.804Z,100.00
2023-06-08T01:11:15.035Z,100.00
2023-06-08T01:12:11.463Z,100.00
2023-06-08T01:12:54.699Z,100.00
2023-06-08T01:13:37.264Z,100.00
2023-06-08T01:14:30.260Z,100.00
2023-06-08T01:15:04.563Z,100.00
2023-06-08T01:15:40.335Z,100.00
2023-06-08T01:16:15.771Z,100.00
2023-06-08T01:16:52.564Z,100.00
2023-06-08T01:17:42.461Z,100.00
2023-06-08T01:18:19.069Z,100.00
2023-06-08T01:18:53.824Z,100.00
2023-06-08T01:19:40.722Z,100.00
2023-06-08T01:20:43.382Z,100.00
2023-06-08T01:21:28.999Z,100.00
2023-06-08T01:22:13.243Z,100.00
2023-06-08T01:22:57.769Z,100.00
2023-06-08T01:23:38.928Z,100.00
2023-06-08T01:24:25.513Z,100.00
2023-06-08T01:24:58.115Z,100.00
2023-06-08T01:25:31.316Z,100.00
2023-06-08T01:26:04.488Z,100.00
2023-06-08T01:26:36.260Z,100.00
2023-06-08T01:27:10.654Z,100.00
2023-06-08T01:27:45.403Z,100.00
2023-06-08T01:28:18.045Z,100.00
2023-06-08T01:28:50.632Z,100.00
2023-06-08T01:29:28.727Z,100.00
2023-06-08T01:30:00.518Z,100.00
2023-06-08T01:30:32.455Z,100.00
2023-06-08T01:31:06.732Z,100.00
2023-06-08T01:31:39.044Z,100.00
2023-06-08T01:32:11.925Z,100.00
2023-06-08T01:32:44.911Z,100.00
2023-06-08T01:33:18.999Z,100.00
2023-06-08T01:33:51.333Z,100.00
2023-06-08T01:34:23.202Z,100.00
2023-06-08T01:34:54.879Z,100.00
2023-06-08T01:35:26.547Z,100.00
2023-06-08T01:36:06.422Z,100.00
2023-06-08T01:36:38.111Z,100.00
2023-06-08T01:37:41.147Z,100.00
2023-06-08T01:38:22.898Z,100.00
2023-06-08T01:39:42.733Z,100.00
2023-06-08T01:40:21.817Z,100.00
2023-06-08T01:40:56.965Z,100.00
2023-06-08T01:41:35.341Z,100.00
2023-06-08T01:42:07.507Z,100.00
2023-06-08T01:42:40.766Z,100.00
2023-06-08T01:43:13.520Z,100.00
2023-06-08T01:43:52.950Z,100.00
2023-06-08T01:44:24.596Z,100.00
2023-06-08T01:45:08.926Z,100.00
2023-06-08T01:45:45.922Z,100.00
2023-06-08T01:46:20.000Z,100.00
2023-06-08T01:46:59.922Z,100.00
2023-06-08T01:47:39.321Z,100.00
2023-06-08T01:48:11.800Z,100.00
2023-06-08T01:48:44.836Z,100.00
2023-06-08T01:49:17.052Z,100.00
2023-06-08T01:49:51.795Z,100.00
2023-06-08T01:50:24.183Z,100.00
2023-06-08T01:50:56.357Z,100.00
2023-06-08T01:51:30.147Z,100.00
2023-06-08T01:52:03.400Z,100.00
2023-06-08T01:52:35.338Z,100.00
2023-06-08T01:53:07.637Z,100.00
2023-06-08T01:53:39.193Z,100.00
2023-06-08T01:54:10.769Z,100.00
2023-06-08T01:54:42.380Z,100.00
2023-06-08T01:55:18.073Z,100.00
2023-06-08T01:55:51.120Z,100.00
2023-06-08T01:56:22.832Z,100.00
2023-06-08T01:56:54.888Z,100.00
2023-06-08T01:57:26.846Z,100.00
2023-06-08T01:57:58.535Z,100.00
2023-06-08T01:58:30.150Z,100.00
2023-06-08T01:59:02.155Z,100.00
2023-06-08T01:59:36.358Z,100.00
2023-06-08T02:00:10.242Z,100.00
2023-06-08T02:00:44.240Z,100.00
2023-06-08T02:01:15.980Z,100.00
2023-06-08T02:01:47.873Z,100.00
2023-06-08T02:02:19.569Z,100.00
2023-06-08T02:02:51.441Z,100.00
2023-06-08T02:03:24.549Z,100.00
2023-06-08T02:03:56.147Z,100.00
2023-06-08T02:04:27.793Z,100.00
2023-06-08T02:04:59.498Z,100.00
2023-06-08T02:05:31.122Z,100.00
2023-06-08T02:06:04.725Z,100.00
2023-06-08T02:06:38.178Z,100.00
2023-06-08T02:07:10.421Z,100.00
2023-06-08T02:07:42.960Z,100.00
2023-06-08T02:08:15.597Z,100.00
2023-06-08T02:08:47.885Z,100.00
2023-06-08T02:09:19.449Z,100.00
2023-06-08T02:09:50.990Z,100.00
2023-06-08T02:10:24.227Z,100.00
2023-06-08T02:10:55.963Z,100.00
2023-06-08T02:11:27.723Z,100.00
2023-06-08T02:12:08.945Z,100.00
2023-06-08T02:12:41.059Z,100.00
2023-06-08T02:13:12.630Z,100.00
2023-06-08T02:13:45.027Z,100.00
2023-06-08T02:14:16.694Z,100.00
2023-06-08T02:14:48.604Z,100.00
2023-06-08T02:15:21.615Z,100.00
2023-06-08T02:15:53.628Z,100.00
2023-06-08T02:16:25.536Z,100.00
2023-06-08T02:16:57.836Z,100.00
2023-06-08T02:17:34.770Z,100.00
2023-06-08T02:18:06.703Z,100.00
2023-06-08T02:18:44.106Z,100.00
2023-06-08T02:19:17.822Z,100.00
2023-06-08T02:19:51.663Z,100.00
2023-06-08T02:20:23.202Z,100.00
2023-06-08T02:20:54.811Z,100.00
2023-06-08T02:21:26.390Z,100.00
2023-06-08T02:21:59.305Z,100.00
2023-06-08T02:22:30.950Z,100.00
2023-06-08T02:23:02.484Z,100.00
2023-06-08T02:23:34.170Z,100.00
2023-06-08T02:24:07.942Z,100.00
2023-06-08T02:24:39.592Z,100.00
2023-06-08T02:25:11.492Z,100.00
2023-06-08T02:25:44.007Z,100.00
2023-06-08T02:26:17.740Z,100.00
2023-06-08T02:26:56.014Z,100.00
2023-06-08T02:27:28.721Z,100.00
2023-06-08T02:28:01.575Z,100.00
2023-06-08T02:28:33.208Z,100.00
2023-06-08T02:29:04.953Z,100.00
2023-06-08T02:29:36.733Z,100.00
2023-06-08T02:30:10.487Z,100.00
2023-06-08T02:30:42.937Z,100.00
2023-06-08T02:31:14.718Z,100.00
2023-06-08T02:31:47.318Z,100.00
2023-06-08T02:32:18.907Z,100.00
2023-06-08T02:32:50.551Z,100.00
2023-06-08T02:33:22.899Z,100.00
2023-06-08T02:34:00.745Z,100.00
2023-06-08T02:34:32.573Z,100.00
2023-06-08T02:35:06.070Z,100.00
2023-06-08T02:35:41.686Z,100.00
2023-06-08T02:36:13.259Z,100.00
2023-06-08T02:36:50.621Z,100.00
2023-06-08T02:37:26.253Z,100.00
2023-06-08T02:37:58.313Z,100.00
2023-06-08T02:38:30.003Z,100.00
2023-06-08T02:39:01.811Z,100.00
2023-06-08T02:39:34.391Z,100.00
2023-06-08T02:40:06.921Z,100.00
2023-06-08T02:40:43.407Z,100.00
2023-06-08T02:41:18.136Z,100.00
2023-06-08T02:41:49.988Z,100.00
2023-06-08T02:42:21.880Z,100.00
2023-06-08T02:42:54.045Z,100.00
2023-06-08T02:43:27.587Z,100.00
2023-06-08T02:44:01.936Z,100.00
2023-06-08T02:44:33.903Z,100.00
2023-06-08T02:45:06.249Z,100.00
2023-06-08T02:45:38.980Z,100.00
2023-06-08T02:46:11.239Z,100.00
2023-06-08T02:46:46.474Z,100.00
2023-06-08T02:47:18.674Z,100.00
2023-06-08T02:47:50.468Z,100.00
2023-06-08T02:48:22.149Z,100.00
2023-06-08T02:48:53.698Z,100.00
2023-06-08T02:49:25.358Z,100.00
2023-06-08T02:49:56.906Z,100.00
2023-06-08T02:50:32.209Z,100.00
2023-06-08T02:51:03.943Z,100.00
2023-06-08T02:51:37.213Z,100.00
2023-06-08T02:52:08.962Z,100.00
2023-06-08T02:52:40.761Z,100.00
2023-06-08T02:53:12.414Z,100.00
2023-06-08T02:53:44.032Z,100.00
2023-06-08T02:54:15.797Z,100.00
2023-06-08T02:54:47.587Z,100.00
2023-06-08T02:55:19.650Z,100.00
2023-06-08T02:55:52.242Z,100.00
2023-06-08T02:56:27.922Z,100.00
2023-06-08T02:56:59.528Z,100.00
2023-06-08T02:57:33.628Z,100.00
2023-06-08T02:58:07.823Z,100.00
2023-06-08T02:58:42.789Z,100.00
2023-06-08T02:59:15.577Z,100.00
2023-06-08T02:59:47.140Z,100.00
2023-06-08T03:00:21.254Z,100.00
2023-06-08T03:01:21.870Z,100.00
2023-06-08T03:02:09.261Z,100.00
2023-06-08T03:02:42.786Z,100.00
2023-06-08T03:03:14.940Z,100.00
2023-06-08T03:03:53.033Z,100.00
2023-06-08T03:04:27.966Z,100.00
2023-06-08T03:05:04.936Z,100.00
2023-06-08T03:05:40.303Z,100.00
2023-06-08T03:06:13.794Z,100.00
2023-06-08T03:06:46.546Z,100.00
2023-06-08T03:07:20.719Z,100.00
2023-06-08T03:08:00.276Z,100.00
2023-06-08T03:08:32.280Z,100.00
2023-06-08T03:09:05.324Z,100.00
2023-06-08T03:09:39.572Z,100.00
2023-06-08T03:10:15.010Z,100.00
2023-06-08T03:10:46.610Z,100.00
2023-06-08T03:11:19.415Z,100.00
2023-06-08T03:11:51.438Z,100.00
2023-06-08T03:12:23.676Z,100.00
2023-06-08T03:12:55.367Z,100.00
2023-06-08T03:13:27.907Z,100.00
2023-06-08T03:13:59.646Z,100.00
2023-06-08T03:14:31.250Z,100.00
2023-06-08T03:15:08.620Z,100.00
2023-06-08T03:15:42.473Z,100.00
2023-06-08T03:16:16.088Z,100.00
2023-06-08T03:16:48.488Z,100.00
2023-06-08T03:17:20.355Z,100.00
2023-06-08T03:17:53.104Z,100.00
2023-06-08T03:18:26.521Z,100.00
2023-06-08T03:18:58.358Z,100.00
2023-06-08T03:19:33.549Z,100.00
2023-06-08T03:20:09.308Z,100.00
2023-06-08T03:20:45.273Z,100.00
2023-06-08T03:21:21.863Z,100.00
2023-06-08T03:21:56.372Z,100.00
2023-06-08T03:22:28.147Z,100.00
2023-06-08T03:23:05.823Z,100.00
2023-06-08T03:23:38.994Z,100.00
2023-06-08T03:24:12.420Z,100.00
2023-06-08T03:24:49.641Z,100.00
2023-06-08T03:25:22.574Z,100.00
2023-06-08T03:25:56.071Z,100.00
2023-06-08T03:26:27.889Z,100.00
2023-06-08T03:27:01.382Z,100.00
2023-06-08T03:27:34.069Z,100.00
2023-06-08T03:28:09.984Z,100.00
2023-06-08T03:28:41.869Z,100.00
2023-06-08T03:29:13.699Z,100.00
2023-06-08T03:29:49.362Z,100.00
2023-06-08T03:30:21.621Z,100.00
2023-06-08T03:30:56.520Z,100.00
2023-06-08T03:31:37.863Z,100.00
2023-06-08T03:32:11.960Z,100.00
2023-06-08T03:32:49.949Z,100.00
2023-06-08T03:33:25.288Z,100.00
2023-06-08T03:34:05.817Z,100.00
2023-06-08T03:34:41.966Z,100.00
2023-06-08T03:35:14.987Z,100.00
2023-06-08T03:35:47.734Z,100.00
2023-06-08T03:36:37.328Z,100.00
2023-06-08T03:37:19.695Z,100.00
2023-06-08T03:37:51.870Z,100.00
2023-06-08T03:38:24.484Z,100.00
2023-06-08T03:38:58.075Z,100.00
2023-06-08T03:39:29.753Z,100.00
2023-06-08T03:40:01.665Z,100.00
2023-06-08T03:40:33.815Z,100.00
2023-06-08T03:41:05.628Z,100.00
2023-06-08T03:41:37.960Z,100.00
2023-06-08T03:42:13.600Z,100.00
2023-06-08T03:42:47.542Z,100.00
2023-06-08T03:43:19.693Z,100.00
2023-06-08T03:43:52.640Z,100.00
2023-06-08T03:44:28.780Z,100.00
2023-06-08T03:45:00.478Z,100.00
2023-06-08T03:45:32.527Z,100.00
2023-06-08T03:46:04.877Z,100.00
2023-06-08T03:46:36.932Z,100.00
2023-06-08T03:47:10.293Z,100.00
2023-06-08T03:47:44.678Z,100.00
2023-06-08T03:48:16.307Z,100.00
2023-06-08T03:48:48.893Z,100.00
2023-06-08T03:49:20.548Z,100.00
2023-06-08T03:49:52.132Z,100.00
2023-06-08T03:50:24.072Z,100.00
2023-06-08T03:50:57.323Z,100.00
2023-06-08T03:51:30.059Z,100.00
2023-06-08T03:52:02.517Z,100.00
2023-06-08T03:52:35.008Z,100.00
2023-06-08T03:53:06.548Z,100.00
2023-06-08T03:53:38.218Z,100.00
2023-06-08T03:54:10.166Z,100.00
2023-06-08T03:54:41.736Z,100.00
2023-06-08T03:55:14.197Z,100.00
2023-06-08T03:55:46.475Z,100.00
2023-06-08T03:56:18.541Z,100.00
2023-06-08T03:56:50.229Z,100.00
2023-06-08T03:57:21.924Z,100.00
2023-06-08T03:57:54.821Z,100.00
2023-06-08T03:58:26.423Z,100.00
2023-06-08T03:58:58.163Z,100.00
2023-06-08T03:59:29.992Z,100.00
2023-06-08T04:00:02.318Z,100.00
2023-06-08T04:00:34.975Z,100.00
2023-06-08T04:01:06.526Z,100.00
2023-06-08T04:01:38.091Z,100.00
2023-06-08T04:02:09.926Z,100.00
2023-06-08T04:02:41.871Z,100.00
2023-06-08T04:03:18.860Z,100.00
2023-06-08T04:03:51.818Z,100.00
2023-06-08T04:04:25.209Z,100.00
2023-06-08T04:05:00.304Z,100.00
2023-06-08T04:05:33.437Z,100.00
2023-06-08T04:06:10.069Z,100.00
2023-06-08T04:06:42.132Z,100.00
2023-06-08T04:07:14.959Z,100.00
2023-06-08T04:07:49.027Z,100.00
2023-06-08T04:08:20.800Z,100.00
2023-06-08T04:08:52.951Z,100.00
2023-06-08T04:09:25.445Z,100.00
2023-06-08T04:09:57.069Z,100.00
2023-06-08T04:10:28.912Z,100.00
2023-06-08T04:11:00.632Z,100.00
2023-06-08T04:11:32.355Z,100.00
2023-06-08T04:12:06.557Z,100.00
2023-06-08T04:12:38.248Z,100.00
2023-06-08T04:13:10.090Z,100.00
2023-06-08T04:13:42.779Z,100.00
2023-06-08T04:14:18.511Z,100.00
2023-06-08T04:14:50.967Z,100.00
2023-06-08T04:15:22.555Z,100.00
2023-06-08T04:15:54.668Z,100.00
2023-06-08T04:16:26.393Z,100.00
2023-06-08T04:17:00.815Z,100.00
2023-06-08T04:17:32.725Z,100.00
2023-06-08T04:18:06.410Z,100.00
2023-06-08T04:18:41.118Z,100.00
2023-06-08T04:19:14.628Z,100.00
2023-06-08T04:19:46.243Z,100.00
2023-06-08T04:20:17.870Z,100.00
2023-06-08T04:20:49.588Z,100.00
2023-06-08T04:21:22.396Z,100.00
2023-06-08T04:21:57.957Z,100.00
2023-06-08T04:22:31.460Z,100.00
2023-06-08T04:23:03.115Z,100.00
2023-06-08T04:23:36.444Z,100.00
2023-06-08T04:24:10.131Z,100.00
2023-06-08T04:24:44.323Z,100.00
2023-06-08T04:25:16.512Z,100.00
2023-06-08T04:25:49.272Z,100.00
2023-06-08T04:26:21.907Z,100.00
2023-06-08T04:26:53.509Z,100.00
2023-06-08T04:27:25.441Z,100.00
2023-06-08T04:27:57.422Z,100.00
2023-06-08T04:28:29.473Z,100.00
2023-06-08T04:29:02.150Z,100.00
2023-06-08T04:29:38.125Z,100.00
2023-06-08T04:30:10.514Z,100.00
2023-06-08T04:30:45.277Z,100.00
2023-06-08T04:31:17.396Z,100.00
2023-06-08T04:31:49.392Z,100.00
2023-06-08T04:32:24.476Z,100.00
2023-06-08T04:33:00.852Z,100.00
2023-06-08T04:33:34.041Z,100.00
2023-06-08T04:34:09.739Z,100.00
2023-06-08T04:34:41.973Z,100.00
2023-06-08T04:35:13.926Z,100.00
2023-06-08T04:35:45.938Z,100.00
2023-06-08T04:36:17.618Z,100.00
2023-06-08T04:36:49.174Z,100.00
2023-06-08T04:37:21.673Z,100.00
2023-06-08T04:37:53.578Z,100.00
2023-06-08T04:38:26.383Z,100.00
2023-06-08T04:38:58.323Z,100.00
2023-06-08T04:39:31.212Z,100.00
2023-06-08T04:40:05.378Z,100.00
2023-06-08T04:40:38.072Z,100.00
2023-06-08T04:41:12.535Z,100.00
2023-06-08T04:41:47.577Z,100.00
2023-06-08T04:42:20.596Z,100.00
2023-06-08T04:42:53.205Z,100.00
2023-06-08T04:43:31.320Z,100.00
2023-06-08T04:44:10.031Z,100.00
2023-06-08T04:44:41.916Z,100.00
2023-06-08T04:45:13.978Z,100.00
2023-06-08T04:45:56.572Z,100.00
2023-06-08T04:46:31.558Z,100.00
2023-06-08T04:47:04.316Z,100.00
2023-06-08T04:47:37.106Z,100.00
2023-06-08T04:48:10.496Z,100.00
2023-06-08T04:48:44.461Z,100.00
2023-06-08T04:49:17.576Z,100.00
2023-06-08T04:49:49.188Z,100.00
2023-06-08T04:50:20.823Z,100.00
2023-06-08T04:51:24.517Z,100.00
2023-06-08T04:51:59.327Z,100.00
2023-06-08T04:52:31.427Z,100.00
2023-06-08T04:53:03.058Z,100.00
2023-06-08T04:53:35.190Z,100.00
2023-06-08T04:54:14.680Z,100.00
2023-06-08T04:54:48.079Z,100.00
2023-06-08T04:55:23.162Z,100.00
2023-06-08T04:55:58.730Z,100.00
2023-06-08T04:56:34.694Z,100.00
2023-06-08T04:57:10.200Z,100.00
2023-06-08T04:57:43.027Z,100.00
2023-06-08T04:58:15.907Z,100.00
2023-06-08T04:58:47.737Z,100.00
2023-06-08T04:59:19.356Z,100.00
2023-06-08T04:59:51.452Z,100.00
2023-06-08T05:00:23.095Z,100.00
2023-06-08T05:00:55.574Z,100.00
2023-06-08T05:01:27.387Z,100.00
2023-06-08T05:01:58.957Z,100.00
2023-06-08T05:02:33.465Z,100.00
2023-06-08T05:03:05.496Z,100.00
2023-06-08T05:03:37.318Z,100.00
2023-06-08T05:04:09.315Z,100.00
2023-06-08T05:04:41.020Z,100.00
2023-06-08T05:05:13.628Z,100.00
2023-06-08T05:05:45.386Z,100.00
2023-06-08T05:06:17.125Z,100.00
2023-06-08T05:06:49.053Z,100.00
2023-06-08T05:07:20.699Z,100.00
2023-06-08T05:07:52.284Z,100.00
2023-06-08T05:08:23.864Z,100.00
2023-06-08T05:08:55.545Z,100.00
2023-06-08T05:09:27.146Z,100.00
2023-06-08T05:10:02.023Z,100.00
2023-06-08T05:10:33.846Z,100.00
2023-06-08T05:11:09.689Z,100.00
2023-06-08T05:11:41.853Z,100.00
2023-06-08T05:12:13.383Z,100.00
2023-06-08T05:12:44.944Z,100.00
2023-06-08T05:13:16.625Z,100.00
2023-06-08T05:13:50.569Z,100.00
2023-06-08T05:14:25.214Z,100.00
2023-06-08T05:14:56.905Z,100.00
2023-06-08T05:15:29.695Z,100.00
2023-06-08T05:16:02.940Z,100.00
2023-06-08T05:16:36.424Z,100.00
2023-06-08T05:17:09.984Z,100.00
2023-06-08T05:17:44.958Z,100.00
2023-06-08T05:18:16.669Z,100.00
2023-06-08T05:18:48.849Z,100.00
2023-06-08T05:19:20.505Z,100.00
2023-06-08T05:19:52.616Z,100.00
2023-06-08T05:20:25.853Z,100.00
2023-06-08T05:20:58.482Z,100.00
2023-06-08T05:21:30.038Z,100.00
2023-06-08T05:22:01.768Z,100.00
2023-06-08T05:22:33.425Z,100.00
2023-06-08T05:23:05.191Z,100.00
2023-06-08T05:23:36.772Z,100.00
2023-06-08T05:24:08.795Z,100.00
2023-06-08T05:24:40.496Z,100.00
2023-06-08T05:25:12.024Z,100.00
2023-06-08T05:25:44.654Z,100.00
2023-06-08T05:26:16.295Z,100.00
2023-06-08T05:26:47.835Z,100.00
2023-06-08T05:27:19.432Z,100.00
2023-06-08T05:27:52.939Z,100.00
2023-06-08T05:28:24.494Z,100.00
2023-06-08T05:28:56.277Z,100.00
2023-06-08T05:29:27.812Z,100.00
2023-06-08T05:30:01.444Z,100.00
2023-06-08T05:30:33.543Z,100.00
2023-06-08T05:31:05.140Z,100.00
2023-06-08T05:31:37.314Z,100.00
2023-06-08T05:32:08.962Z,100.00
2023-06-08T05:32:40.645Z,100.00
2023-06-08T05:33:12.332Z,99.70
2023-06-08T05:33:44.073Z,99.99
2023-06-08T05:34:18.389Z,99.96
2023-06-08T05:34:51.723Z,99.95
2023-06-08T05:35:23.271Z,99.24
2023-06-08T05:35:54.854Z,98.84
2023-06-08T05:36:36.952Z,98.65
2023-06-08T05:37:08.571Z,98.14
2023-06-08T05:37:40.201Z,97.35
2023-06-08T05:38:11.770Z,98.23
2023-06-08T05:38:43.327Z,97.03
2023-06-08T05:39:15.070Z,97.35
2023-06-08T05:39:46.691Z,96.50
2023-06-08T05:40:18.778Z,96.34
2023-06-08T05:40:50.544Z,95.18
2023-06-08T05:41:23.389Z,94.37
2023-06-08T05:41:54.982Z,93.97
2023-06-08T05:42:26.773Z,93.61
2023-06-08T05:42:58.366Z,93.02
2023-06-08T05:43:29.955Z,92.50
2023-06-08T05:44:01.739Z,92.41
2023-06-08T05:44:33.494Z,91.56
2023-06-08T05:45:05.448Z,90.50
2023-06-08T05:45:36.998Z,90.69
2023-06-08T05:46:08.552Z,90.01
2023-06-08T05:46:40.185Z,89.12
2023-06-08T05:47:11.746Z,88.96
2023-06-08T05:47:43.710Z,88.44
2023-06-08T05:48:15.764Z,88.47
2023-06-08T05:48:49.014Z,87.80
2023-06-08T05:49:20.874Z,87.15
2023-06-08T05:49:52.787Z,86.23
2023-06-08T05:50:24.346Z,84.99
2023-06-08T05:50:56.085Z,84.10
2023-06-08T05:51:27.636Z,83.93
2023-06-08T05:51:59.351Z,83.90
2023-06-08T05:52:31.845Z,83.63
2023-06-08T05:53:03.852Z,84.90
2023-06-08T05:53:37.498Z,83.62
2023-06-08T05:54:09.093Z,83.52
2023-06-08T05:54:40.787Z,83.81
2023-06-08T05:55:13.011Z,85.12
2023-06-08T05:55:45.718Z,85.44
2023-06-08T05:56:17.386Z,86.05
2023-06-08T05:56:48.925Z,86.26
2023-06-08T05:57:20.553Z,86.61
2023-06-08T05:57:52.195Z,86.12
2023-06-08T05:58:33.487Z,86.64
2023-06-08T05:59:09.181Z,87.58
2023-06-08T05:59:40.840Z,88.22
2023-06-08T06:00:13.715Z,89.32
2023-06-08T06:00:46.025Z,89.99
2023-06-08T06:01:20.383Z,90.72
2023-06-08T06:01:52.096Z,90.93
2023-06-08T06:02:23.786Z,92.35
2023-06-08T06:02:55.612Z,92.53
2023-06-08T06:03:27.711Z,92.33
2023-06-08T06:03:59.577Z,92.94
2023-06-08T06:04:37.474Z,93.37
2023-06-08T06:05:10.984Z,94.10
2023-06-08T06:05:42.784Z,94.42
2023-06-08T06:06:16.552Z,95.77
2023-06-08T06:06:48.098Z,95.47
2023-06-08T06:07:19.634Z,95.35
2023-06-08T06:07:53.963Z,95.62
2023-06-08T06:08:25.974Z,95.88
2023-06-08T06:09:00.642Z,95.68
2023-06-08T06:09:33.922Z,95.76
2023-06-08T06:10:07.250Z,95.95
2023-06-08T06:10:39.075Z,97.09
2023-06-08T06:11:10.824Z,97.01
2023-06-08T06:11:48.606Z,96.39
2023-06-08T06:12:20.194Z,97.39
2023-06-08T06:12:51.949Z,96.81
2023-06-08T06:13:24.079Z,97.10
2023-06-08T06:13:55.674Z,97.18
2023-06-08T06:14:29.060Z,97.40
2023-06-08T06:15:00.669Z,96.20
2023-06-08T06:15:32.222Z,96.96
2023-06-08T06:16:03.790Z,96.64
2023-06-08T06:16:35.571Z,96.13
2023-06-08T06:17:08.871Z,95.54
2023-06-08T06:17:40.793Z,95.67
2023-06-08T06:18:12.792Z,95.50
2023-06-08T06:18:44.643Z,95.66
2023-06-08T06:19:16.188Z,95.76
2023-06-08T06:19:47.797Z,95.59
2023-06-08T06:20:19.402Z,95.02
2023-06-08T06:20:51.598Z,94.67
2023-06-08T06:21:23.644Z,93.11
2023-06-08T06:21:55.216Z,93.62
2023-06-08T06:22:26.794Z,93.05
2023-06-08T06:22:58.407Z,92.85
2023-06-08T06:23:34.575Z,92.21
2023-06-08T06:24:07.444Z,92.26
2023-06-08T06:24:39.483Z,91.55
2023-06-08T06:25:12.039Z,91.99
2023-06-08T06:25:44.356Z,92.54
2023-06-08T06:26:16.084Z,92.60
2023-06-08T06:26:47.729Z,92.48
2023-06-08T06:27:20.320Z,93.12
2023-06-08T06:27:52.174Z,92.86
2023-06-08T06:28:23.776Z,93.27
2023-06-08T06:28:55.587Z,93.57
2023-06-08T06:29:27.132Z,93.43
2023-06-08T06:29:59.008Z,93.89
2023-06-08T06:30:31.498Z,94.67
2023-06-08T06:31:03.206Z,94.63
2023-06-08T06:31:34.839Z,94.85
2023-06-08T06:32:07.436Z,95.22
2023-06-08T06:32:39.043Z,94.42
2023-06-08T06:33:10.704Z,95.35
2023-06-08T06:33:42.384Z,95.63
2023-06-08T06:34:14.040Z,96.47
2023-06-08T06:34:45.734Z,96.35
2023-06-08T06:35:19.087Z,96.84
2023-06-08T06:35:51.889Z,96.81
2023-06-08T06:36:24.702Z,96.96
2023-06-08T06:36:57.989Z,97.21
2023-06-08T06:37:35.457Z,97.73
2023-06-08T06:38:08.039Z,97.74
2023-06-08T06:38:39.698Z,97.38
2023-06-08T06:39:11.308Z,98.08
2023-06-08T06:39:42.854Z,98.59
2023-06-08T06:40:14.564Z,98.22
2023-06-08T06:40:48.204Z,98.52
2023-06-08T06:41:19.741Z,98.51
2023-06-08T06:41:51.305Z,99.15
2023-06-08T06:42:26.306Z,99.42
2023-06-08T06:43:06.018Z,98.81
2023-06-08T06:43:45.562Z,98.98
2023-06-08T06:44:19.299Z,98.99
2023-06-08T06:44:50.980Z,99.24
2023-06-08T06:45:22.688Z,99.00
2023-06-08T06:45:54.365Z,98.90
2023-06-08T06:46:26.702Z,99.38
2023-06-08T06:47:00.685Z,99.25
2023-06-08T06:47:32.522Z,98.91
2023-06-08T06:48:04.539Z,99.15
2023-06-08T06:48:36.655Z,99.38
2023-06-08T06:49:08.398Z,98.36
2023-06-08T06:49:40.088Z,98.49
2023-06-08T06:50:12.064Z,98.68
2023-06-08T06:50:43.743Z,99.30
2023-06-08T06:51:15.356Z,98.67
2023-06-08T06:51:47.053Z,98.47
2023-06-08T06:52:18.611Z,98.49
2023-06-08T06:52:50.691Z,98.12
2023-06-08T06:53:22.216Z,98.13
2023-06-08T06:54:01.894Z,98.25
2023-06-08T06:54:34.741Z,98.17
2023-06-08T06:55:06.449Z,98.09
2023-06-08T06:55:38.109Z,98.29
2023-06-08T06:56:09.704Z,98.24
2023-06-08T06:56:42.130Z,97.87
2023-06-08T06:57:15.107Z,98.03
2023-06-08T06:57:51.867Z,97.60
2023-06-08T06:58:27.122Z,96.21
2023-06-08T06:59:01.201Z,96.85
2023-06-08T06:59:32.929Z,96.38
2023-06-08T07:00:11.437Z,96.15
2023-06-08T07:00:43.932Z,95.87
2023-06-08T07:01:17.103Z,95.63
2023-06-08T07:01:49.282Z,95.98